Time;durP1;ratioP1;P1;durP2;ratioP2;P2;SDS_P1;SDS_P2;PMS_P1;PMS_P2;Temp;Humidity;BMP_temperature;BMP_pressure;BME280_temperature;BME280_humidity;BME280_pressure;Samples;Min_cycle;Max_cycle;Signal;HPM_P1;HPM_P2
2022/08/04 00:02:12;;;;;;;27.40;5.53;;;;;;;;;;5021944;28;20693;-73
2022/08/04 00:04:44;;;;;;;14.82;4.90;;;;;;;;;;5018118;28;20501;-73
2022/08/04 00:07:09;;;;;;;;;;;;;;;;;;5019843;28;20056;-74
2022/08/04 00:09:35;;;;;;;14.95;5.10;;;;;;;;;;5017416;28;19916;-73
2022/08/04 00:12:01;;;;;;;19.33;6.13;;;;;;;;;;5016690;28;20439;-73
2022/08/04 00:14:29;;;;;;;24.17;8.70;;;;;;;;;;5018694;28;20197;-73
2022/08/04 00:16:54;;;;;;;27.67;9.32;;;;;;;;;;5005808;28;20048;-73
2022/08/04 00:19:31;;;;;;;20.17;6.60;;;;;;;;;;5032207;28;20513;-73
2022/08/04 00:22:04;;;;;;;17.30;5.60;;;;;;;;;;5016714;28;20032;-74
2022/08/04 00:24:30;;;;;;;14.75;4.78;;;;;;;;;;5019417;28;20042;-73
2022/08/04 00:26:56;;;;;;;11.35;4.93;;;;;;;;;;5018700;28;20156;-73
2022/08/04 00:29:22;;;;;;;18.05;6.53;;;;;;;;;;5032557;28;20269;-73
2022/08/04 00:31:48;;;;;;;13.10;5.20;;;;;;;;;;5020465;28;20803;-74
2022/08/04 00:34:16;;;;;;;9.48;5.30;;;;;;;;;;5017695;28;20107;-74
2022/08/04 00:36:42;;;;;;;12.10;8.60;;;;;;;;;;5018074;28;20182;-72
2022/08/04 00:39:10;;;;;;;15.93;11.40;;;;;;;;;;5018760;28;20075;-74
2022/08/04 00:42:01;;;;;;;12.30;9.82;;;;;;;;;;5018696;28;20032;-74
2022/08/04 00:44:41;;;;;;;8.07;6.05;;;;;;;;;;5009513;28;20033;-74
2022/08/04 00:47:16;;;;;;;13.05;7.30;;;;;;;;;;5036640;28;20054;-73
2022/08/04 00:49:47;;;;;;;13.32;7.38;;;;;;;;;;5022250;28;20106;-73
2022/08/04 00:52:31;;;;;;;15.32;8.55;;;;;;;;;;5020717;28;20450;-72
2022/08/04 00:55:22;;;;;;;21.27;8.77;;;;;;;;;;5021996;28;20057;-73
2022/08/04 00:57:58;;;;;;;27.77;7.72;;;;;;;;;;5017423;28;20131;-73
2022/08/04 01:00:23;;;;;;;24.33;7.78;;;;;;;;;;5021244;28;20624;-72
2022/08/04 01:02:54;;;;;;;18.42;6.65;;;;;;;;;;5021479;28;20660;-73
2022/08/04 01:05:25;;;;;;;35.92;8.23;;;;;;;;;;5022144;28;20055;-73
2022/08/04 01:08:08;;;;;;;46.58;9.93;;;;;;;;;;5021232;28;20185;-74
2022/08/04 01:10:36;;;;;;;48.50;10.52;;;;;;;;;;5021705;28;20037;-74
2022/08/04 01:13:17;;;;;;;37.67;9.90;;;;;;;;;;5021465;28;20037;-74
2022/08/04 01:15:45;;;;;;;36.20;8.63;;;;;;;;;;5023227;28;20342;-72
2022/08/04 01:18:17;;;;;;;22.17;6.65;;;;;;;;;;5021490;28;20059;-73
2022/08/04 01:20:50;;;;;;;13.32;5.75;;;;;;;;;;5020993;28;20085;-72
2022/08/04 01:23:34;;;;;;;13.27;5.90;;;;;;;;;;5022494;28;20627;-73
2022/08/04 01:26:05;;;;;;;13.73;7.22;;;;;;;;;;5020655;28;20576;-73
2022/08/04 01:28:45;;;;;;;18.40;13.13;;;;;;;;;;5021293;28;20073;-73
2022/08/04 01:31:19;;;;;;;16.10;11.30;;;;;;;;;;5035712;28;20686;-73
2022/08/04 01:33:45;;;;;;;16.90;9.70;;;;;;;;;;5018274;28;20541;-73
2022/08/04 01:36:11;;;;;;;13.95;7.47;;;;;;;;;;5021129;28;20526;-73
2022/08/04 01:38:41;;;;;;;13.93;8.00;;;;;;;;;;5034719;28;20857;-74
2022/08/04 01:41:12;;;;;;;13.98;8.50;;;;;;;;;;5021257;28;20025;-74
2022/08/04 01:43:40;;;;;;;11.55;8.55;;;;;;;;;;5021488;28;20037;-73
2022/08/04 01:46:09;;;;;;;18.30;9.10;;;;;;;;;;5020970;28;20214;-72
2022/08/04 01:48:37;;;;;;;28.42;9.57;;;;;;;;;;5019839;28;20039;-73
2022/08/04 01:51:03;;;;;;;21.75;10.60;;;;;;;;;;5022244;28;20041;-72
2022/08/04 01:53:30;;;;;;;26.38;11.35;;;;;;;;;;5021179;28;20032;-73
2022/08/04 01:55:59;;;;;;;22.75;10.63;;;;;;;;;;5034588;28;20206;-73
2022/08/04 01:58:28;;;;;;;17.92;8.30;;;;;;;;;;5007812;28;20048;-73
2022/08/04 02:00:58;;;;;;;22.20;8.35;;;;;;;;;;5019749;28;20124;-74
2022/08/04 02:03:26;;;;;;;15.70;7.45;;;;;;;;;;5019155;28;20083;-74
2022/08/04 02:05:58;;;;;;;14.50;7.18;;;;;;;;;;5025347;28;20126;-74
2022/08/04 02:08:23;;;;;;;;;;;;;;;;;;5020154;28;20140;-74
2022/08/04 02:11:13;;;;;;;13.82;7.05;;;;;;;;;;5021190;28;19922;-73
2022/08/04 02:13:42;;;;;;;12.90;6.43;;;;;;;;;;5018318;28;20130;-73
2022/08/04 02:16:27;;;;;;;14.55;8.05;;;;;;;;;;5025305;28;20032;-73
2022/08/04 02:19:12;;;;;;;9.30;7.25;;;;;;;;;;5019797;28;20627;-75
2022/08/04 02:21:39;;;;;;;8.63;5.20;;;;;;;;;;5033659;28;20039;-74
2022/08/04 02:24:05;;;;;;;8.43;3.40;;;;;;;;;;5020656;28;20557;-73
2022/08/04 02:26:34;;;;;;;10.40;2.90;;;;;;;;;;5021042;28;20118;-73
2022/08/04 02:29:16;;;;;;;8.27;3.00;;;;;;;;;;5020157;28;20046;-73
2022/08/04 02:32:18;;;;;;;7.03;3.00;;;;;;;;;;5020471;28;20050;-73
2022/08/04 02:34:43;;;;;;;;;;;;;;;;;;4973742;28;20036;-74
2022/08/04 02:37:09;;;;;;;7.70;2.90;;;;;;;;;;5014144;28;20717;-73
2022/08/04 02:39:36;;;;;;;9.32;3.28;;;;;;;;;;5017452;28;20841;-73
2022/08/04 02:42:02;;;;;;;8.82;3.08;;;;;;;;;;5019472;28;20637;-73
2022/08/04 02:44:30;;;;;;;9.23;3.13;;;;;;;;;;5020869;28;20436;-72
2022/08/04 02:46:58;;;;;;;10.80;3.90;;;;;;;;;;5021008;28;20187;-73
2022/08/04 02:49:25;;;;;;;9.25;3.63;;;;;;;;;;5075437;28;20045;-84
2022/08/04 02:51:51;;;;;;;10.70;3.53;;;;;;;;;;5082021;28;20020;-84
2022/08/04 02:54:18;;;;;;;8.45;3.42;;;;;;;;;;5074141;28;20044;-85
2022/08/04 02:56:44;;;;;;;8.27;3.20;;;;;;;;;;5071705;28;20037;-85
2022/08/04 02:59:11;;;;;;;8.82;3.85;;;;;;;;;;5095712;28;20400;-84
2022/08/04 03:01:36;;;;;;;7.43;3.10;;;;;;;;;;5077876;28;20025;-83
2022/08/04 03:04:10;;;;;;;9.60;3.50;;;;;;;;;;5088384;28;20059;-84
2022/08/04 03:06:54;;;;;;;8.93;3.33;;;;;;;;;;5073145;28;20101;-82
2022/08/04 03:09:39;;;;;;;8.07;3.95;;;;;;;;;;5081863;28;20033;-85
2022/08/04 03:12:20;;;;;;;6.03;3.38;;;;;;;;;;5074558;28;20039;-85
2022/08/04 03:15:12;;;;;;;10.82;3.30;;;;;;;;;;5054292;28;20020;-84
2022/08/04 03:18:04;;;;;;;7.53;3.25;;;;;;;;;;5098711;28;20040;-83
2022/08/04 03:20:33;;;;;;;10.57;3.50;;;;;;;;;;5074821;28;20029;-84
2022/08/04 03:23:08;;;;;;;8.20;3.10;;;;;;;;;;5073460;28;20029;-82
2022/08/04 03:25:53;;;;;;;8.05;3.33;;;;;;;;;;5059508;28;20044;-83
2022/08/04 03:28:27;;;;;;;9.38;3.30;;;;;;;;;;5027806;28;20105;-74
2022/08/04 03:31:08;;;;;;;9.90;3.50;;;;;;;;;;5018232;28;20722;-74
2022/08/04 03:33:49;;;;;;;10.82;3.65;;;;;;;;;;5017509;28;22409;-73
2022/08/04 03:36:33;;;;;;;13.60;3.72;;;;;;;;;;5014402;28;20360;-73
2022/08/04 03:38:59;;;;;;;9.73;3.72;;;;;;;;;;5019029;28;20054;-74
2022/08/04 03:41:45;;;;;;;8.77;3.70;;;;;;;;;;5018513;28;20029;-73
2022/08/04 03:44:30;;;;;;;11.68;3.85;;;;;;;;;;5020414;28;20052;-74
2022/08/04 03:47:14;;;;;;;9.13;3.97;;;;;;;;;;5020317;28;20514;-74
2022/08/04 03:49:45;;;;;;;7.40;3.45;;;;;;;;;;5018646;28;20043;-73
2022/08/04 03:55:16;;;;;;;7.78;4.18;;;;;;;;;;5020163;28;20151;-73
2022/08/04 03:57:53;;;;;;;10.18;4.05;;;;;;;;;;5020862;28;20052;-73
2022/08/04 04:00:20;;;;;;;9.15;4.05;;;;;;;;;;5020289;28;20519;-74
2022/08/04 04:02:51;;;;;;;8.77;3.97;;;;;;;;;;5017064;28;20058;-73
2022/08/04 04:05:38;;;;;;;10.57;4.13;;;;;;;;;;5034147;28;20755;-73
2022/08/04 04:08:14;;;;;;;15.20;4.22;;;;;;;;;;5017751;28;21776;-71
2022/08/04 04:11:07;;;;;;;9.52;3.95;;;;;;;;;;5021738;28;20047;-73
2022/08/04 04:13:44;;;;;;;13.75;4.28;;;;;;;;;;5017250;28;20230;-73
2022/08/04 04:16:13;;;;;;;12.68;4.00;;;;;;;;;;5019149;28;20609;-72
2022/08/04 04:18:46;;;;;;;16.02;4.60;;;;;;;;;;5016411;28;20044;-73
2022/08/04 04:21:15;;;;;;;10.70;4.30;;;;;;;;;;5021968;28;20044;-73
2022/08/04 04:23:43;;;;;;;10.60;3.65;;;;;;;;;;5017538;28;20037;-72
2022/08/04 04:26:14;;;;;;;12.13;3.58;;;;;;;;;;5031651;28;20036;-73
2022/08/04 04:28:45;;;;;;;10.32;3.10;;;;;;;;;;5017887;28;20433;-73
2022/08/04 04:31:29;;;;;;;10.10;3.80;;;;;;;;;;5017097;28;20106;-74
2022/08/04 04:34:01;;;;;;;9.65;3.35;;;;;;;;;;5017352;28;20040;-74
2022/08/04 04:36:26;;;;;;;9.25;3.22;;;;;;;;;;5016638;28;20479;-74
2022/08/04 04:38:55;;;;;;;9.80;3.30;;;;;;;;;;5017948;28;20033;-74
2022/08/04 04:41:29;;;;;;;12.00;3.25;;;;;;;;;;5018779;28;20032;-73
2022/08/04 04:44:10;;;;;;;9.52;2.90;;;;;;;;;;5018029;28;20621;-73
2022/08/04 04:46:41;;;;;;;13.60;3.85;;;;;;;;;;5016684;28;21037;-73
2022/08/04 04:49:25;;;;;;;10.55;3.47;;;;;;;;;;5018103;28;20028;-73
2022/08/04 04:51:56;;;;;;;11.32;3.10;;;;;;;;;;5017627;28;20095;-72
2022/08/04 04:54:29;;;;;;;7.93;3.05;;;;;;;;;;5015431;28;20063;-72
2022/08/04 04:57:10;;;;;;;13.30;3.25;;;;;;;;;;5014898;28;20287;-72
2022/08/04 04:59:36;;;;;;;12.82;3.10;;;;;;;;;;5028876;28;20037;-73
2022/08/04 05:02:14;;;;;;;13.48;3.15;;;;;;;;;;5019594;27;20036;-73
2022/08/04 05:04:42;;;;;;;8.82;3.10;;;;;;;;;;5051066;28;20112;-80
2022/08/04 05:07:20;;;;;;;12.55;3.30;;;;;;;;;;5040178;28;20033;-72
2022/08/04 05:09:54;;;;;;;8.93;3.20;;;;;;;;;;5018902;28;20067;-73
2022/08/04 05:12:25;;;;;;;12.98;3.78;;;;;;;;;;5013754;28;20443;-72
2022/08/04 05:14:52;;;;;;;8.15;3.30;;;;;;;;;;5030548;28;20529;-72
2022/08/04 05:17:24;;;;;;;10.60;3.28;;;;;;;;;;5018737;28;20043;-72
2022/08/04 05:20:08;;;;;;;8.40;3.22;;;;;;;;;;5002954;28;20492;-73
2022/08/04 05:22:46;;;;;;;10.65;3.00;;;;;;;;;;5018398;28;20059;-74
2022/08/04 05:25:21;;;;;;;9.25;3.15;;;;;;;;;;5015473;28;20033;-73
2022/08/04 05:28:13;;;;;;;13.95;3.25;;;;;;;;;;5018974;28;20033;-73
2022/08/04 05:30:49;;;;;;;10.98;3.25;;;;;;;;;;5003026;28;20044;-72
2022/08/04 05:33:37;;;;;;;11.93;3.60;;;;;;;;;;5020335;28;20078;-72
2022/08/04 05:36:05;;;;;;;12.68;3.60;;;;;;;;;;5019581;28;20111;-73
2022/08/04 05:38:34;;;;;;;10.20;2.70;;;;;;;;;;5020678;28;20166;-73
2022/08/04 05:41:00;;;;;;;10.90;3.30;;;;;;;;;;5033045;28;20036;-73
2022/08/04 05:43:25;;;;;;;9.45;3.47;;;;;;;;;;5018298;28;20032;-74
2022/08/04 05:45:51;;;;;;;11.07;3.20;;;;;;;;;;5020139;28;20040;-73
2022/08/04 05:48:17;;;;;;;7.93;2.97;;;;;;;;;;5017436;28;20044;-73
2022/08/04 05:50:43;;;;;;;8.68;3.10;;;;;;;;;;5008903;28;20437;-73
2022/08/04 05:53:14;;;;;;;11.45;3.25;;;;;;;;;;5019751;28;20293;-72
2022/08/04 05:55:39;;;;;;;10.57;2.92;;;;;;;;;;5005072;28;20147;-73
2022/08/04 05:58:05;;;;;;;13.07;3.20;;;;;;;;;;5022372;28;20054;-73
2022/08/04 06:00:32;;;;;;;12.63;3.15;;;;;;;;;;5021180;28;20033;-72
2022/08/04 06:02:57;;;;;;;12.82;2.92;;;;;;;;;;5035361;28;20036;-73
2022/08/04 06:05:23;;;;;;;13.07;3.25;;;;;;;;;;5030013;28;20371;-73
2022/08/04 06:07:49;;;;;;;12.05;3.22;;;;;;;;;;5009551;28;20527;-73
2022/08/04 06:10:17;;;;;;;9.82;3.03;;;;;;;;;;5023543;28;20476;-73
2022/08/04 06:12:48;;;;;;;9.55;3.15;;;;;;;;;;5035104;28;21974;-74
2022/08/04 06:15:17;;;;;;;9.80;3.00;;;;;;;;;;5017843;28;20029;-74
2022/08/04 06:17:47;;;;;;;12.00;3.20;;;;;;;;;;5020126;28;20761;-73
2022/08/04 06:20:13;;;;;;;7.80;2.80;;;;;;;;;;5020953;28;22315;-73
2022/08/04 06:22:40;;;;;;;10.98;3.00;;;;;;;;;;5019174;28;20033;-73
2022/08/04 06:25:07;;;;;;;9.70;3.03;;;;;;;;;;5018741;28;20213;-73
2022/08/04 06:27:33;;;;;;;11.18;2.80;;;;;;;;;;5006192;28;20511;-72
2022/08/04 06:29:59;;;;;;;11.02;2.47;;;;;;;;;;5019194;28;20082;-72
2022/08/04 06:32:27;;;;;;;9.20;2.75;;;;;;;;;;5018512;28;20039;-73
2022/08/04 06:34:56;;;;;;;10.55;2.33;;;;;;;;;;5024111;27;20035;-73
2022/08/04 06:37:24;;;;;;;5.90;1.95;;;;;;;;;;5036034;27;20052;-73
2022/08/04 06:39:50;;;;;;;10.65;2.47;;;;;;;;;;5016189;28;20032;-73
2022/08/04 06:42:16;;;;;;;7.65;2.05;;;;;;;;;;5023235;28;20116;-72
2022/08/04 06:44:43;;;;;;;7.15;1.70;;;;;;;;;;5019126;28;20164;-72
2022/08/04 06:47:09;;;;;;;7.25;1.95;;;;;;;;;;5021246;28;20026;-73
2022/08/04 06:49:36;;;;;;;9.85;1.90;;;;;;;;;;5018847;28;20144;-73
2022/08/04 06:52:02;;;;;;;7.50;1.60;;;;;;;;;;5021405;28;20160;-73
2022/08/04 06:54:27;;;;;;;7.32;1.88;;;;;;;;;;5023560;28;20046;-74
2022/08/04 06:56:53;;;;;;;9.27;1.95;;;;;;;;;;5017175;28;20580;-73
2022/08/04 06:59:19;;;;;;;7.32;1.92;;;;;;;;;;5018330;28;20567;-72
2022/08/04 07:01:45;;;;;;;7.45;1.73;;;;;;;;;;5019731;28;20558;-73
2022/08/04 07:04:11;;;;;;;9.32;1.85;;;;;;;;;;5018429;28;20037;-71
2022/08/04 07:06:40;;;;;;;6.20;1.83;;;;;;;;;;5018913;28;20257;-72
2022/08/04 07:09:10;;;;;;;9.98;1.92;;;;;;;;;;5034767;28;20055;-81
2022/08/04 07:11:36;;;;;;;7.72;2.08;;;;;;;;;;5027660;28;20039;-81
2022/08/04 07:14:03;;;;;;;8.77;2.05;;;;;;;;;;5049366;28;20449;-81
2022/08/04 07:16:29;;;;;;;6.85;1.70;;;;;;;;;;5020905;28;21910;-82
2022/08/04 07:18:54;;;;;;;7.65;1.98;;;;;;;;;;5032092;28;20036;-83
2022/08/04 07:21:21;;;;;;;6.72;1.67;;;;;;;;;;5037106;28;20491;-81
2022/08/04 07:23:46;;;;;;;4.95;1.67;;;;;;;;;;5033090;28;20036;-68
2022/08/04 07:26:14;;;;;;;6.35;1.77;;;;;;;;;;5021877;28;20058;-72
2022/08/04 07:28:40;;;;;;;6.68;1.45;;;;;;;;;;5026950;28;20709;-73
2022/08/04 07:31:08;;;;;;;7.50;1.60;;;;;;;;;;5022365;28;20306;-73
2022/08/04 07:33:33;;;;;;;6.80;1.80;;;;;;;;;;5011222;28;20040;-74
2022/08/04 07:35:59;;;;;;;7.85;1.58;;;;;;;;;;5020171;28;20040;-73
2022/08/04 07:38:24;;;;;;;6.93;1.80;;;;;;;;;;5032010;28;20509;-72
2022/08/04 07:40:50;;;;;;;7.53;1.80;;;;;;;;;;5020455;28;20032;-73
2022/08/04 07:43:16;;;;;;;7.30;1.60;;;;;;;;;;5016273;28;20032;-73
2022/08/04 07:45:41;;;;;;;7.15;1.77;;;;;;;;;;5015097;28;20061;-72
2022/08/04 07:48:08;;;;;;;8.23;1.80;;;;;;;;;;5020006;28;20609;-71
2022/08/04 07:50:33;;;;;;;7.63;1.65;;;;;;;;;;5034470;28;20040;-77
2022/08/04 07:52:59;;;;;;;7.13;1.70;;;;;;;;;;5044088;28;20028;-78
2022/08/04 07:55:25;;;;;;;5.55;1.58;;;;;;;;;;5056478;28;20032;-80
2022/08/04 07:57:50;;;;;;;6.85;1.60;;;;;;;;;;5040963;28;20044;-78
2022/08/04 08:00:16;;;;;;;4.20;1.52;;;;;;;;;;5046942;28;20044;-79
2022/08/04 08:02:42;;;;;;;5.57;1.50;;;;;;;;;;5046678;28;20141;-78
2022/08/04 08:05:09;;;;;;;5.55;1.58;;;;;;;;;;5045327;28;20111;-78
2022/08/04 08:07:34;;;;;;;5.65;1.40;;;;;;;;;;5047157;28;20029;-72
2022/08/04 08:10:00;;;;;;;7.10;1.50;;;;;;;;;;5033097;28;20039;-72
2022/08/04 08:12:25;;;;;;;4.32;1.48;;;;;;;;;;5022548;28;20059;-72
2022/08/04 08:14:53;;;;;;;4.63;1.35;;;;;;;;;;5017353;28;20148;-72
2022/08/04 08:17:18;;;;;;;5.63;1.38;;;;;;;;;;5019762;28;20139;-72
2022/08/04 08:19:44;;;;;;;6.00;1.60;;;;;;;;;;5028711;28;20199;-72
2022/08/04 08:22:10;;;;;;;5.93;1.58;;;;;;;;;;5016691;28;20044;-73
2022/08/04 08:24:35;;;;;;;6.00;1.67;;;;;;;;;;5018016;28;20041;-72
2022/08/04 08:27:03;;;;;;;5.60;1.80;;;;;;;;;;5021103;28;20278;-78
2022/08/04 08:29:28;;;;;;;4.47;1.35;;;;;;;;;;5036750;28;20555;-76
2022/08/04 08:31:55;;;;;;;7.22;1.63;;;;;;;;;;5029767;28;20675;-76
2022/08/04 08:34:20;;;;;;;5.75;1.80;;;;;;;;;;5027169;28;20037;-77
2022/08/04 08:36:47;;;;;;;4.40;1.30;;;;;;;;;;5024734;28;21278;-76
2022/08/04 08:39:28;;;;;;;4.97;1.50;;;;;;;;;;5022613;28;20056;-77
2022/08/04 08:42:12;;;;;;;7.18;1.65;;;;;;;;;;5028644;28;20218;-75
2022/08/04 08:44:56;;;;;;;5.40;1.70;;;;;;;;;;5029808;28;20032;-75
2022/08/04 08:47:28;;;;;;;3.55;1.40;;;;;;;;;;5057530;28;20049;-74
2022/08/04 08:50:00;;;;;;;5.18;1.48;;;;;;;;;;5055894;28;20528;-74
2022/08/04 08:52:40;;;;;;;4.00;1.48;;;;;;;;;;5051194;28;20029;-72
2022/08/04 08:55:05;;;;;;;10.63;1.90;;;;;;;;;;5059377;28;20021;-73
2022/08/04 08:57:49;;;;;;;4.47;1.67;;;;;;;;;;5058427;28;20044;-74
2022/08/04 09:00:33;;;;;;;5.05;1.60;;;;;;;;;;5025617;28;20684;-73
2022/08/04 09:03:09;;;;;;;5.68;1.55;;;;;;;;;;5032718;28;20882;-73
2022/08/04 09:05:54;;;;;;;7.72;1.65;;;;;;;;;;5030321;28;20153;-72
2022/08/04 09:08:19;;;;;;;7.13;2.00;;;;;;;;;;5020982;28;20047;-73
2022/08/04 09:10:50;;;;;;;5.28;1.40;;;;;;;;;;5041018;28;20033;-76
2022/08/04 09:13:40;;;;;;;7.80;1.98;;;;;;;;;;5055257;28;20125;-75
2022/08/04 09:16:08;;;;;;;6.03;1.65;;;;;;;;;;5062396;28;20120;-76
2022/08/04 09:18:43;;;;;;;5.82;2.00;;;;;;;;;;5063182;28;20041;-76
2022/08/04 09:21:16;;;;;;;6.93;1.60;;;;;;;;;;5071991;28;20033;-75
2022/08/04 09:23:50;;;;;;;3.28;1.58;;;;;;;;;;5039641;28;20053;-76
2022/08/04 09:26:20;;;;;;;7.15;1.70;;;;;;;;;;5054378;28;20049;-75
2022/08/04 09:29:04;;;;;;;5.82;1.80;;;;;;;;;;5060749;27;20536;-76
2022/08/04 09:31:32;;;;;;;4.30;1.77;;;;;;;;;;5050437;28;22117;-76
2022/08/04 09:34:12;;;;;;;5.00;1.75;;;;;;;;;;5082223;28;20799;-75
2022/08/04 09:36:52;;;;;;;6.90;1.80;;;;;;;;;;5062977;28;20992;-77
2022/08/04 09:39:27;;;;;;;7.72;2.00;;;;;;;;;;5061454;28;20249;-76
2022/08/04 09:42:11;;;;;;;5.13;2.08;;;;;;;;;;5066691;28;20029;-74
2022/08/04 09:44:44;;;;;;;7.25;1.70;;;;;;;;;;5041672;28;20634;-74
2022/08/04 09:47:33;;;;;;;8.32;1.83;;;;;;;;;;5035459;28;20064;-71
2022/08/04 09:50:05;;;;;;;5.85;1.60;;;;;;;;;;5017661;28;21882;-75
2022/08/04 09:52:36;;;;;;;5.63;1.92;;;;;;;;;;5047017;28;20658;-75
2022/08/04 09:55:01;;;;;;;;;;;;;;;;;;5034295;28;20734;-76
2022/08/04 09:57:30;;;;;;;9.30;2.33;;;;;;;;;;5039733;28;19927;-74
2022/08/04 10:00:02;;;;;;;5.13;2.20;;;;;;;;;;5032626;28;20036;-74
2022/08/04 10:02:33;;;;;;;7.65;2.17;;;;;;;;;;5048880;28;20040;-75
2022/08/04 10:05:01;;;;;;;6.82;1.90;;;;;;;;;;5044109;28;20036;-76
2022/08/04 10:07:29;;;;;;;6.93;2.22;;;;;;;;;;5048572;28;20060;-74
2022/08/04 10:10:13;;;;;;;5.70;1.85;;;;;;;;;;5058524;28;20505;-76
2022/08/04 10:13:04;;;;;;;8.15;2.25;;;;;;;;;;5046390;28;20032;-75
2022/08/04 10:15:39;;;;;;;10.30;2.35;;;;;;;;;;5040155;28;20485;-76
2022/08/04 10:18:09;;;;;;;7.82;2.13;;;;;;;;;;5044282;28;20599;-72
2022/08/04 10:20:54;;;;;;;6.00;1.88;;;;;;;;;;5021087;28;20564;-73
2022/08/04 10:23:31;;;;;;;8.80;1.90;;;;;;;;;;5035444;28;20185;-73
2022/08/04 10:26:02;;;;;;;6.82;2.28;;;;;;;;;;5036404;28;20479;-73
2022/08/04 10:28:29;;;;;;;6.53;1.70;;;;;;;;;;5036576;28;20082;-72
2022/08/04 10:30:58;;;;;;;8.05;1.80;;;;;;;;;;5020513;28;20296;-72
2022/08/04 10:33:26;;;;;;;6.10;1.85;;;;;;;;;;5019034;28;20033;-72
2022/08/04 10:36:03;;;;;;;7.18;2.22;;;;;;;;;;5021315;28;22454;-72
2022/08/04 10:38:36;;;;;;;4.82;1.98;;;;;;;;;;5016962;28;20249;-73
2022/08/04 10:41:04;;;;;;;7.93;1.70;;;;;;;;;;5022919;28;20039;-72
2022/08/04 10:43:32;;;;;;;5.35;1.70;;;;;;;;;;5021877;28;20117;-73
2022/08/04 10:46:02;;;;;;;8.40;2.05;;;;;;;;;;5020750;28;20572;-71
2022/08/04 10:48:35;;;;;;;8.05;2.33;;;;;;;;;;5033929;28;20504;-73
2022/08/04 10:51:02;;;;;;;6.43;2.05;;;;;;;;;;5021987;28;20178;-72
2022/08/04 10:53:33;;;;;;;6.28;1.80;;;;;;;;;;5022462;28;20040;-73
2022/08/04 10:56:04;;;;;;;6.18;1.90;;;;;;;;;;5022407;28;20056;-72
2022/08/04 10:58:39;;;;;;;6.50;1.90;;;;;;;;;;5021029;28;20592;-71
2022/08/04 11:01:06;;;;;;;6.88;1.98;;;;;;;;;;5018583;28;20182;-72
2022/08/04 11:03:47;;;;;;;8.63;1.98;;;;;;;;;;5019487;28;20106;-71
2022/08/04 11:06:13;;;;;;;7.00;2.07;;;;;;;;;;5024856;28;20480;-76
2022/08/04 11:08:44;;;;;;;7.45;1.90;;;;;;;;;;5042050;28;20490;-77
2022/08/04 11:11:27;;;;;;;6.38;2.00;;;;;;;;;;5029169;28;20060;-77
2022/08/04 11:13:57;;;;;;;5.90;2.00;;;;;;;;;;5029889;28;20469;-77
2022/08/04 11:16:50;;;;;;;7.53;2.33;;;;;;;;;;5029523;28;20036;-76
2022/08/04 11:19:22;;;;;;;5.70;2.00;;;;;;;;;;5030522;28;20159;-74
2022/08/04 11:22:06;;;;;;;6.43;1.85;;;;;;;;;;5028776;28;20109;-77
2022/08/04 11:24:31;;;;;;;7.30;2.20;;;;;;;;;;5046144;28;21020;-78
2022/08/04 11:27:01;;;;;;;6.70;1.70;;;;;;;;;;5042796;28;20028;-77
2022/08/04 11:29:44;;;;;;;5.60;1.60;;;;;;;;;;5025830;28;20039;-74
2022/08/04 11:32:18;;;;;;;5.18;1.80;;;;;;;;;;5036457;28;20444;-76
2022/08/04 11:34:46;;;;;;;7.25;2.03;;;;;;;;;;5026299;28;20488;-75
2022/08/04 11:37:16;;;;;;;5.18;1.80;;;;;;;;;;5041039;28;20037;-76
2022/08/04 11:39:47;;;;;;;5.53;2.10;;;;;;;;;;5030755;28;20059;-72
2022/08/04 11:42:13;;;;;;;;;;;;;;;;;;5007286;28;20597;-75
2022/08/04 11:44:57;;;;;;;7.18;1.92;;;;;;;;;;5021817;28;21698;-73
2022/08/04 11:47:23;;;;;;;7.43;2.28;;;;;;;;;;5020794;28;20493;-75
2022/08/04 11:49:53;;;;;;;6.28;1.80;;;;;;;;;;5022816;28;20055;-76
2022/08/04 11:52:18;;;;;;;4.20;1.73;;;;;;;;;;5013305;28;20544;-75
2022/08/04 11:54:47;;;;;;;5.00;1.85;;;;;;;;;;5023166;28;20094;-74
2022/08/04 11:57:13;;;;;;;6.18;1.80;;;;;;;;;;5021629;28;20629;-76
2022/08/04 11:59:40;;;;;;;8.23;2.42;;;;;;;;;;5026362;28;20048;-75
2022/08/04 12:02:25;;;;;;;6.55;1.98;;;;;;;;;;5023441;28;20118;-75
2022/08/04 12:05:04;;;;;;;5.43;1.90;;;;;;;;;;5017422;28;20048;-75
2022/08/04 12:07:57;;;;;;;6.43;2.10;;;;;;;;;;5020652;28;20096;-73
2022/08/04 12:10:32;;;;;;;4.45;2.00;;;;;;;;;;5018533;28;20037;-71
2022/08/04 12:13:18;;;;;;;7.25;2.58;;;;;;;;;;5035523;28;20040;-73
2022/08/04 12:15:51;;;;;;;4.97;1.90;;;;;;;;;;5018523;28;20072;-71
2022/08/04 12:18:19;;;;;;;5.80;2.28;;;;;;;;;;5007171;28;20044;-72
2022/08/04 12:20:47;;;;;;;8.65;2.13;;;;;;;;;;5020116;28;20036;-72
2022/08/04 12:23:21;;;;;;;7.55;2.33;;;;;;;;;;5019922;28;20089;-70
2022/08/04 12:25:49;;;;;;;8.40;2.25;;;;;;;;;;5020643;28;20051;-71
2022/08/04 12:28:20;;;;;;;5.18;1.92;;;;;;;;;;5015773;28;21028;-72
2022/08/04 12:30:50;;;;;;;6.97;2.10;;;;;;;;;;5021511;28;20970;-72
2022/08/04 12:33:39;;;;;;;8.68;2.30;;;;;;;;;;5019026;28;21827;-71
2022/08/04 12:36:11;;;;;;;5.53;1.80;;;;;;;;;;5010906;28;20040;-71
2022/08/04 12:38:41;;;;;;;6.75;2.15;;;;;;;;;;5019702;28;20147;-71
2022/08/04 12:41:07;;;;;;;4.63;1.90;;;;;;;;;;5020417;27;20165;-71
2022/08/04 12:43:35;;;;;;;5.25;1.90;;;;;;;;;;5047765;27;20037;-71
2022/08/04 12:46:02;;;;;;;6.78;2.25;;;;;;;;;;5024936;28;20100;-75
2022/08/04 12:48:30;;;;;;;8.90;1.98;;;;;;;;;;5025878;28;20085;-76
2022/08/04 12:50:56;;;;;;;6.13;1.90;;;;;;;;;;5024996;28;20591;-77
2022/08/04 12:53:31;;;;;;;7.22;2.00;;;;;;;;;;5026136;28;20044;-77
2022/08/04 12:55:58;;;;;;;5.93;2.03;;;;;;;;;;5027059;28;20540;-76
2022/08/04 12:58:26;;;;;;;6.40;1.70;;;;;;;;;;5042890;28;22180;-76
2022/08/04 13:00:55;;;;;;;5.82;1.90;;;;;;;;;;5026854;28;20109;-79
2022/08/04 13:03:22;;;;;;;7.03;1.85;;;;;;;;;;5028440;28;20032;-77
2022/08/04 13:05:51;;;;;;;4.47;1.50;;;;;;;;;;5027140;28;20068;-76
2022/08/04 13:08:18;;;;;;;6.75;2.42;;;;;;;;;;5026600;28;20254;-77
2022/08/04 13:10:45;;;;;;;8.68;1.77;;;;;;;;;;5032617;28;20397;-74
2022/08/04 13:13:14;;;;;;;6.38;1.70;;;;;;;;;;5029903;28;20036;-77
2022/08/04 13:15:39;;;;;;;7.13;2.00;;;;;;;;;;5026144;28;20040;-75
2022/08/04 13:18:07;;;;;;;4.95;1.80;;;;;;;;;;5027738;28;20045;-76
2022/08/04 13:20:36;;;;;;;7.32;2.10;;;;;;;;;;5028178;28;20572;-75
2022/08/04 13:23:07;;;;;;;7.43;1.90;;;;;;;;;;5026929;28;20126;-75
2022/08/04 13:25:38;;;;;;;6.85;2.20;;;;;;;;;;5027925;28;20040;-76
2022/08/04 13:28:05;;;;;;;7.68;2.45;;;;;;;;;;5027472;28;20098;-75
2022/08/04 13:30:34;;;;;;;5.50;2.00;;;;;;;;;;5030246;28;20163;-77
2022/08/04 13:33:03;;;;;;;9.48;2.25;;;;;;;;;;5025480;28;20141;-75
2022/08/04 13:35:29;;;;;;;6.30;1.83;;;;;;;;;;5025470;28;20051;-76
2022/08/04 13:37:55;;;;;;;7.00;2.25;;;;;;;;;;5025039;28;20044;-76
2022/08/04 13:40:22;;;;;;;8.38;2.20;;;;;;;;;;5039806;28;20044;-74
2022/08/04 13:42:50;;;;;;;9.00;2.13;;;;;;;;;;5024365;28;20037;-76
2022/08/04 13:45:19;;;;;;;6.82;2.10;;;;;;;;;;5025681;28;20098;-75
2022/08/04 13:47:47;;;;;;;6.28;2.20;;;;;;;;;;5026416;28;20043;-77
2022/08/04 13:50:14;;;;;;;7.20;2.05;;;;;;;;;;5024493;28;20868;-76
2022/08/04 13:52:43;;;;;;;5.75;1.75;;;;;;;;;;5025060;28;20037;-73
2022/08/04 13:55:23;;;;;;;6.65;1.92;;;;;;;;;;5024080;28;20046;-76
2022/08/04 13:57:55;;;;;;;7.50;1.90;;;;;;;;;;5037020;28;20120;-76
2022/08/04 14:00:21;;;;;;;8.95;2.95;;;;;;;;;;5038271;28;20032;-79
2022/08/04 14:03:05;;;;;;;6.90;1.98;;;;;;;;;;5024071;28;20111;-74
2022/08/04 14:05:33;;;;;;;7.25;2.13;;;;;;;;;;5025341;28;20476;-76
2022/08/04 14:08:10;;;;;;;8.07;2.20;;;;;;;;;;5022117;28;20081;-76
2022/08/04 14:10:39;;;;;;;9.18;2.30;;;;;;;;;;5024072;28;20025;-75
2022/08/04 14:13:05;;;;;;;8.48;2.28;;;;;;;;;;5023838;28;20343;-75
2022/08/04 14:15:33;;;;;;;8.05;2.20;;;;;;;;;;5020208;28;20377;-75
2022/08/04 14:18:20;;;;;;;6.88;1.60;;;;;;;;;;5024114;28;20040;-77
2022/08/04 14:21:06;;;;;;;9.75;2.10;;;;;;;;;;5021468;28;20040;-78
2022/08/04 14:23:39;;;;;;;4.95;1.90;;;;;;;;;;5020195;28;20474;-75
2022/08/04 14:26:12;;;;;;;7.65;1.90;;;;;;;;;;5023153;28;20124;-76
2022/08/04 14:28:37;;;;;;;5.80;1.70;;;;;;;;;;5024180;28;20033;-75
2022/08/04 14:31:10;;;;;;;8.40;1.90;;;;;;;;;;5023674;28;20105;-77
2022/08/04 14:33:36;;;;;;;4.78;1.67;;;;;;;;;;5023135;28;20144;-77
2022/08/04 14:36:02;;;;;;;6.07;1.83;;;;;;;;;;5023876;28;20064;-76
2022/08/04 14:38:41;;;;;;;6.15;2.08;;;;;;;;;;5024249;28;20133;-75
2022/08/04 14:41:07;;;;;;;5.55;1.90;;;;;;;;;;5026005;28;20040;-76
2022/08/04 14:43:39;;;;;;;7.63;1.85;;;;;;;;;;5024059;28;20484;-78
2022/08/04 14:46:04;;;;;;;5.45;1.95;;;;;;;;;;5024267;28;20339;-77
2022/08/04 14:48:30;;;;;;;6.88;1.80;;;;;;;;;;5039852;28;20043;-77
2022/08/04 14:50:55;;;;;;;5.60;1.83;;;;;;;;;;5027922;28;20040;-76
2022/08/04 14:53:25;;;;;;;5.45;1.95;;;;;;;;;;5038442;28;20607;-79
2022/08/04 14:55:52;;;;;;;5.95;1.83;;;;;;;;;;5022510;28;20048;-78
2022/08/04 14:58:32;;;;;;;5.82;1.75;;;;;;;;;;5022003;28;20520;-74
2022/08/04 15:01:00;;;;;;;3.83;1.65;;;;;;;;;;5038926;28;20126;-79
2022/08/04 15:03:26;;;;;;;7.88;1.90;;;;;;;;;;5022223;28;22413;-75
2022/08/04 15:05:53;;;;;;;7.18;1.50;;;;;;;;;;5020748;28;20037;-77
2022/08/04 15:08:19;;;;;;;7.30;1.67;;;;;;;;;;5020910;28;20086;-76
2022/08/04 15:10:44;;;;;;;6.03;1.90;;;;;;;;;;5021895;28;20575;-75